createdAt,value
2022-11-25T00:00:32.560Z,100202.50
2022-11-25T00:02:54.333Z,100191.03
2022-11-25T00:04:56.708Z,100192.69
2022-11-25T00:06:58.478Z,100201.69
2022-11-25T00:09:09.913Z,100195.41
2022-11-25T00:11:13.913Z,100195.16
2022-11-25T00:13:15.746Z,100202.50
2022-11-25T00:15:17.544Z,100187.22
2022-11-25T00:17:19.680Z,100203.03
2022-11-25T00:19:21.560Z,100194.03
2022-11-25T00:21:31.597Z,100207.09
2022-11-25T00:23:33.656Z,100193.78
2022-11-25T00:25:35.786Z,100206.03
2022-11-25T00:27:37.927Z,100209.03
2022-11-25T00:29:39.668Z,100208.75
2022-11-25T00:31:41.851Z,100213.66
2022-11-25T00:33:45.027Z,100214.47
2022-11-25T00:35:46.790Z,100212.59
2022-11-25T00:37:48.591Z,100218.81
2022-11-25T00:39:51.706Z,100224.56
2022-11-25T00:42:12.152Z,100222.09
2022-11-25T00:44:36.439Z,100229.44
2022-11-25T00:46:39.207Z,100203.84
2022-11-25T00:48:41.010Z,100227.25
2022-11-25T00:50:42.918Z,100222.94
2022-11-25T00:52:45.161Z,100221.56
2022-11-25T00:54:47.833Z,100217.47
2022-11-25T00:56:50.292Z,100213.66
2022-11-25T00:58:53.318Z,100224.03
2022-11-25T01:00:55.097Z,100216.09
2022-11-25T01:02:56.850Z,100228.09
2022-11-25T01:04:59.026Z,100224.81
2022-11-25T01:07:02.222Z,100227.28
2022-11-25T01:09:05.489Z,100225.38
2022-11-25T01:11:11.453Z,100229.47
2022-11-25T01:13:13.249Z,100229.72
2022-11-25T01:15:15.021Z,100234.38
2022-11-25T01:17:17.141Z,100228.63
2022-11-25T01:19:20.152Z,100231.66
2022-11-25T01:21:30.641Z,100236.53
2022-11-25T01:23:33.353Z,100236.28
2022-11-25T01:25:39.259Z,100243.63
2022-11-25T01:27:43.158Z,100231.63
2022-11-25T01:29:45.288Z,100239.81
2022-11-25T01:31:48.692Z,100246.34
2022-11-25T01:33:56.722Z,100240.88
2022-11-25T01:36:05.154Z,100236.56
2022-11-25T01:38:06.962Z,100249.34
2022-11-25T01:40:09.558Z,100246.88
2022-11-25T01:42:11.594Z,100249.63
2022-11-25T01:44:19.431Z,100241.19
2022-11-25T01:46:25.759Z,100241.72
2022-11-25T01:48:43.040Z,100242.81
2022-11-25T01:50:47.449Z,100229.19
2022-11-25T01:52:51.970Z,100246.06
2022-11-25T01:55:05.323Z,100234.34
2022-11-25T01:57:14.049Z,100233.00
2022-11-25T01:59:16.176Z,100238.72
2022-11-25T02:01:18.422Z,100242.53
2022-11-25T02:03:26.814Z,100246.34
2022-11-25T02:05:52.604Z,100247.72
2022-11-25T02:07:55.561Z,100252.91
2022-11-25T02:09:58.494Z,100248.78
2022-11-25T02:12:01.121Z,100251.25
2022-11-25T02:14:04.006Z,100255.63
2022-11-25T02:16:05.904Z,100255.91
2022-11-25T02:18:07.805Z,100251.25
2022-11-25T02:20:14.412Z,100255.91
2022-11-25T02:22:26.078Z,100264.34
2022-11-25T02:24:43.158Z,100253.97
2022-11-25T02:26:45.338Z,100250.16
2022-11-25T02:28:48.798Z,100252.88
2022-11-25T02:30:51.265Z,100244.72
2022-11-25T02:32:53.437Z,100245.25
2022-11-25T02:34:55.389Z,100244.16
2022-11-25T02:36:57.275Z,100233.00
2022-11-25T02:39:01.648Z,100251.50
2022-11-25T02:41:25.130Z,100252.88
2022-11-25T02:43:27.259Z,100246.34
2022-11-25T02:45:39.885Z,100248.78
2022-11-25T02:47:41.753Z,100251.53
2022-11-25T02:49:43.498Z,100244.16
2022-11-25T02:51:46.185Z,100258.06
2022-11-25T02:53:48.077Z,100252.34
2022-11-25T02:55:49.880Z,100251.22
2022-11-25T02:57:52.115Z,100255.03
2022-11-25T02:59:53.906Z,100254.50
2022-11-25T03:01:55.750Z,100258.31
2022-11-25T03:03:58.655Z,100259.41
2022-11-25T03:06:00.512Z,100259.97
2022-11-25T03:08:02.396Z,100261.88
2022-11-25T03:10:05.049Z,100256.41
2022-11-25T03:12:21.998Z,100259.97
2022-11-25T03:14:23.857Z,100258.63
2022-11-25T03:16:26.032Z,100257.78
2022-11-25T03:18:27.999Z,100259.69
2022-11-25T03:20:29.969Z,100263.78
2022-11-25T03:22:32.166Z,100266.25
2022-11-25T03:24:34.349Z,100261.59
2022-11-25T03:26:36.325Z,100260.78
2022-11-25T03:28:38.450Z,100259.69
2022-11-25T03:30:40.982Z,100254.53
2022-11-25T03:32:43.418Z,100266.50
2022-11-25T03:34:45.586Z,100264.88
2022-11-25T03:36:47.760Z,100267.03
2022-11-25T03:38:49.578Z,100279.31
2022-11-25T03:40:51.797Z,100282.03
2022-11-25T03:42:53.625Z,100275.50
2022-11-25T03:44:55.385Z,100281.78
2022-11-25T03:46:57.505Z,100282.84
2022-11-25T03:48:59.315Z,100281.50
2022-11-25T03:51:01.133Z,100288.28
2022-11-25T03:53:03.266Z,100285.84
2022-11-25T03:55:06.218Z,100277.94
2022-11-25T03:57:07.970Z,100285.03
2022-11-25T03:59:10.299Z,100289.13
2022-11-25T04:01:12.153Z,100279.88
2022-11-25T04:03:14.077Z,100291.56
2022-11-25T04:05:16.325Z,100291.56
2022-11-25T04:07:18.370Z,100291.56
2022-11-25T04:09:20.282Z,100295.41
2022-11-25T04:11:22.432Z,100294.84
2022-11-25T04:13:24.255Z,100299.75
2022-11-25T04:15:26.126Z,100303.00
2022-11-25T04:17:28.259Z,100307.09
2022-11-25T04:19:30.023Z,100303.56
2022-11-25T04:21:31.930Z,100298.13
2022-11-25T04:23:34.613Z,100305.19
2022-11-25T04:25:36.948Z,100309.00
2022-11-25T04:27:38.938Z,100313.38
2022-11-25T04:29:41.055Z,100306.31
2022-11-25T04:31:42.849Z,100312.00
2022-11-25T04:33:49.648Z,100319.34
2022-11-25T04:35:54.568Z,100320.19
2022-11-25T04:37:56.378Z,100314.72
2022-11-25T04:39:58.154Z,100312.56
2022-11-25T04:42:18.894Z,100318.00
2022-11-25T04:44:20.647Z,100322.91
2022-11-25T04:46:24.922Z,100319.63
2022-11-25T04:48:27.359Z,100328.09
2022-11-25T04:50:29.171Z,100333.28
2022-11-25T04:52:31.006Z,100335.16
2022-11-25T04:54:33.358Z,100322.66
2022-11-25T04:56:35.349Z,100339.00
2022-11-25T04:58:55.874Z,100340.09
2022-11-25T05:00:58.064Z,100302.47
2022-11-25T05:02:59.879Z,100331.91
2022-11-25T05:05:02.137Z,100324.81
2022-11-25T05:07:04.330Z,100331.91
2022-11-25T05:09:06.536Z,100333.81
2022-11-25T05:11:08.326Z,100327.25
2022-11-25T05:13:10.461Z,100331.63
2022-11-25T05:15:12.334Z,100340.09
2022-11-25T05:17:22.869Z,100339.25
2022-11-25T05:19:25.062Z,100343.34
2022-11-25T05:21:27.544Z,100346.34
2022-11-25T05:23:29.402Z,100346.09
2022-11-25T05:25:31.577Z,100347.69
2022-11-25T05:27:33.438Z,100348.81
2022-11-25T05:29:35.465Z,100355.59
2022-11-25T05:31:37.766Z,100361.34
2022-11-25T05:33:39.568Z,100358.06
2022-11-25T05:35:41.341Z,100355.31
2022-11-25T05:37:44.996Z,100356.72
2022-11-25T05:39:46.854Z,100353.97
2022-11-25T05:41:48.813Z,100353.16
2022-11-25T05:43:53.609Z,100356.97
2022-11-25T05:45:55.802Z,100351.53
2022-11-25T05:47:57.640Z,100354.81
2022-11-25T05:49:59.769Z,100361.34
2022-11-25T05:52:01.592Z,100353.69
2022-11-25T05:54:03.401Z,100353.16
2022-11-25T05:56:07.207Z,100363.25
2022-11-25T05:58:09.418Z,100355.91
2022-11-25T06:00:11.815Z,100365.41
2022-11-25T06:02:14.016Z,100332.97
2022-11-25T06:04:16.055Z,100347.44
2022-11-25T06:06:18.419Z,100365.69
2022-11-25T06:08:20.535Z,100368.16
2022-11-25T06:10:22.364Z,100370.63
2022-11-25T06:12:24.350Z,100372.22
2022-11-25T06:14:26.466Z,100370.31
2022-11-25T06:16:28.735Z,100376.06
2022-11-25T06:18:30.522Z,100378.78
2022-11-25T06:20:32.650Z,100378.25
2022-11-25T06:22:34.590Z,100378.25
2022-11-25T06:24:36.593Z,100375.22
2022-11-25T06:26:38.878Z,100379.34
2022-11-25T06:28:41.104Z,100378.22
2022-11-25T06:30:42.871Z,100378.25
2022-11-25T06:32:45.141Z,100376.59
2022-11-25T06:34:46.883Z,100376.31
2022-11-25T06:36:51.729Z,100379.88
2022-11-25T06:38:54.491Z,100367.31
2022-11-25T06:41:00.653Z,100373.59
2022-11-25T06:43:04.717Z,100379.88
2022-11-25T06:45:07.505Z,100370.59
2022-11-25T06:47:09.366Z,100380.38
2022-11-25T06:49:11.389Z,100378.78
2022-11-25T06:51:14.855Z,100386.66
2022-11-25T06:53:21.163Z,100376.59
2022-11-25T06:55:25.667Z,100393.50
2022-11-25T06:57:28.191Z,100390.22
2022-11-25T06:59:29.985Z,100394.34
2022-11-25T07:01:31.859Z,100385.84
2022-11-25T07:03:35.033Z,100393.75
2022-11-25T07:05:36.850Z,100399.50
2022-11-25T07:07:38.668Z,100397.84
2022-11-25T07:09:40.947Z,100400.06
2022-11-25T07:11:43.008Z,100400.84
2022-11-25T07:13:45.471Z,100406.03
2022-11-25T07:15:48.027Z,100406.84
2022-11-25T07:17:49.825Z,100403.88
2022-11-25T07:19:51.783Z,100405.50
2022-11-25T07:21:54.023Z,100415.59
2022-11-25T07:23:56.068Z,100410.97
2022-11-25T07:26:02.517Z,100400.84
2022-11-25T07:28:04.706Z,100418.03
2022-11-25T07:31:09.270Z,100419.69
2022-11-25T07:32:32.846Z,100413.41
2022-11-25T07:34:34.646Z,100407.72
2022-11-25T07:36:37.535Z,100408.75
2022-11-25T07:38:46.233Z,100415.31
2022-11-25T07:40:50.647Z,100410.69
2022-11-25T07:42:52.814Z,100421.59
2022-11-25T07:44:54.679Z,100425.69
2022-11-25T07:46:57.216Z,100422.41
2022-11-25T07:49:02.342Z,100421.06
2022-11-25T07:51:04.250Z,100412.34
2022-11-25T07:53:06.031Z,100424.06
2022-11-25T07:55:08.730Z,100411.78
2022-11-25T07:57:11.144Z,100418.63
2022-11-25T07:59:16.254Z,100415.34
2022-11-25T08:01:19.833Z,100418.63
2022-11-25T08:03:21.658Z,100422.44
2022-11-25T08:05:23.483Z,100419.69
2022-11-25T08:07:26.035Z,100412.03
2022-11-25T08:09:27.889Z,100436.03
2022-11-25T08:11:31.615Z,100437.44
2022-11-25T08:13:33.814Z,100433.88
2022-11-25T08:15:35.849Z,100420.78
2022-11-25T08:17:37.708Z,100437.97
2022-11-25T08:19:40.737Z,100435.50
2022-11-25T08:21:42.903Z,100440.97
2022-11-25T08:23:48.727Z,100439.34
2022-11-25T08:25:51.714Z,100444.78
2022-11-25T08:27:53.515Z,100442.59
2022-11-25T08:29:55.296Z,100442.31
2022-11-25T08:31:58.504Z,100437.41
2022-11-25T08:34:01.034Z,100440.94
2022-11-25T08:36:03.470Z,100438.22
2022-11-25T08:38:08.109Z,100444.75
2022-11-25T08:40:11.953Z,100444.50
2022-11-25T08:42:13.735Z,100451.31
2022-11-25T08:44:15.923Z,100451.34
2022-11-25T08:46:20.776Z,100454.59
2022-11-25T08:48:23.064Z,100450.78
2022-11-25T08:50:25.373Z,100457.84
2022-11-25T08:52:30.343Z,100468.78
2022-11-25T08:54:32.531Z,100460.03
2022-11-25T08:56:35.186Z,100451.34
2022-11-25T08:58:38.140Z,100466.03
2022-11-25T09:00:42.214Z,100468.50
2022-11-25T09:02:44.442Z,100461.41
2022-11-25T09:04:46.407Z,100470.41
2022-11-25T09:06:48.580Z,100464.94
2022-11-25T09:08:50.730Z,100464.97
2022-11-25T09:10:55.367Z,100479.97
2022-11-25T09:12:57.523Z,100462.75
2022-11-25T09:14:59.815Z,100465.19
2022-11-25T09:17:02.153Z,100457.28
2022-11-25T09:19:04.455Z,100472.31
2022-11-25T09:21:11.513Z,100469.03
2022-11-25T09:23:14.055Z,100472.56
2022-11-25T09:25:15.969Z,100461.66
2022-11-25T09:27:18.177Z,100461.63
2022-11-25T09:29:20.287Z,100468.75
2022-11-25T09:31:23.370Z,100464.94
2022-11-25T09:33:25.202Z,100470.13
2022-11-25T09:35:30.557Z,100474.22
2022-11-25T09:37:32.571Z,100467.41
2022-11-25T09:39:35.639Z,100470.41
2022-11-25T09:41:59.216Z,100472.56
2022-11-25T09:45:06.574Z,100472.28
2022-11-25T09:47:26.062Z,100468.75
2022-11-25T09:49:40.316Z,100472.59
2022-11-25T09:52:05.769Z,100476.16
2022-11-25T09:54:18.472Z,100483.75
2022-11-25T09:56:33.782Z,100475.31
2022-11-25T09:58:41.014Z,100483.22
2022-11-25T10:00:46.025Z,100478.03
2022-11-25T10:03:04.794Z,100481.28
2022-11-25T10:05:18.728Z,100475.00
2022-11-25T10:07:53.834Z,100472.53
2022-11-25T10:09:56.639Z,100481.28
2022-11-25T10:12:19.336Z,100478.00
2022-11-25T10:14:35.166Z,100472.03
2022-11-25T10:16:52.210Z,100488.94
2022-11-25T10:19:01.503Z,100482.09
2022-11-25T10:21:04.379Z,100490.00
2022-11-25T10:23:06.647Z,100485.88
2022-11-25T10:25:17.485Z,100486.97
2022-11-25T10:27:26.766Z,100479.06
2022-11-25T10:29:30.568Z,100483.41
2022-11-25T10:31:36.823Z,100500.63
2022-11-25T10:33:51.456Z,100499.28
2022-11-25T10:35:56.286Z,100495.16
2022-11-25T10:38:01.825Z,100494.88
2022-11-25T10:40:04.154Z,100497.06
2022-11-25T10:42:15.286Z,100483.94
2022-11-25T10:44:29.002Z,100503.00
2022-11-25T10:47:13.059Z,100498.63
2022-11-25T10:49:22.865Z,100500.81
2022-11-25T10:51:43.627Z,100502.47
2022-11-25T10:54:12.865Z,100499.16
2022-11-25T10:56:19.749Z,100494.81
2022-11-25T10:58:35.132Z,100504.09
2022-11-25T11:00:38.644Z,100490.75
2022-11-25T11:02:41.760Z,100494.28
2022-11-25T11:04:55.306Z,100484.69
2022-11-25T11:07:08.365Z,100510.84
2022-11-25T11:09:34.074Z,100506.50
2022-11-25T11:11:47.956Z,100501.94
2022-11-25T11:13:51.065Z,100503.81
2022-11-25T11:15:54.372Z,100504.66
2022-11-25T11:17:58.408Z,100507.63
2022-11-25T11:20:14.971Z,100499.16
2022-11-25T11:22:18.152Z,100492.72
2022-11-25T11:24:35.703Z,100501.44
2022-11-25T11:26:37.939Z,100504.66
2022-11-25T11:28:41.391Z,100499.19
2022-11-25T11:30:56.894Z,100498.84
2022-11-25T11:33:03.642Z,100506.19
2022-11-25T11:35:21.697Z,100511.75
2022-11-25T11:37:42.677Z,100505.16
2022-11-25T11:40:12.895Z,100510.59
2022-11-25T11:42:30.328Z,100512.25
2022-11-25T11:44:35.501Z,100516.38
2022-11-25T11:46:53.181Z,100516.94
2022-11-25T11:49:10.916Z,100504.41
2022-11-25T11:51:13.903Z,100512.56
2022-11-25T11:53:28.077Z,100513.94
2022-11-25T11:56:00.304Z,100500.81
2022-11-25T11:58:40.794Z,100513.31
2022-11-25T12:00:50.878Z,100514.97
2022-11-25T12:03:19.461Z,100502.97
2022-11-25T12:05:26.778Z,100517.22
2022-11-25T12:07:37.871Z,100514.19
2022-11-25T12:10:10.193Z,100513.31
2022-11-25T12:12:17.311Z,100507.84
2022-11-25T12:14:45.027Z,100517.72
2022-11-25T12:16:55.892Z,100510.09
2022-11-25T12:19:33.683Z,100511.97
2022-11-25T12:21:48.632Z,100500.81
2022-11-25T12:24:04.456Z,100513.31
2022-11-25T12:26:13.150Z,100512.47
2022-11-25T12:28:21.460Z,100513.56
2022-11-25T12:30:24.841Z,100508.38
2022-11-25T12:32:46.715Z,100518.19
2022-11-25T12:34:58.049Z,100503.78
2022-11-25T12:37:14.828Z,100515.78
2022-11-25T12:39:57.179Z,100517.94
2022-11-25T12:42:12.424Z,100514.47
2022-11-25T12:44:18.393Z,100519.38
2022-11-25T12:46:20.519Z,100519.91
2022-11-25T12:48:24.975Z,100514.44
2022-11-25T12:50:48.605Z,100518.28
2022-11-25T12:52:50.862Z,100515.78
2022-11-25T12:54:53.034Z,100521.63
2022-11-25T12:57:22.980Z,100518.59
2022-11-25T13:00:17.894Z,100530.88
2022-11-25T13:02:35.850Z,100532.03
2022-11-25T13:05:39.028Z,100531.50
2022-11-25T13:07:54.136Z,100512.44
2022-11-25T13:10:22.245Z,100525.78
2022-11-25T13:13:00.210Z,100511.56
2022-11-25T13:15:11.891Z,100521.94
2022-11-25T13:17:16.195Z,100519.25
2022-11-25T13:19:20.161Z,100527.69
2022-11-25T13:21:25.427Z,100530.41
2022-11-25T13:23:30.122Z,100525.50
2022-11-25T13:25:34.644Z,100512.38
2022-11-25T13:27:42.398Z,100523.28
2022-11-25T13:29:44.535Z,100531.75
2022-11-25T13:31:59.914Z,100523.00
2022-11-25T13:34:20.420Z,100526.31
2022-11-25T13:36:47.001Z,100526.59
2022-11-25T13:38:50.574Z,100524.91
2022-11-25T13:41:01.948Z,100521.97
2022-11-25T13:43:21.490Z,100530.41
2022-11-25T13:45:32.175Z,100530.13
2022-11-25T13:47:38.879Z,100540.78
2022-11-25T13:49:51.342Z,100551.16
2022-11-25T13:52:13.267Z,100539.44
2022-11-25T13:54:18.413Z,100531.53
2022-11-25T13:56:32.136Z,100545.75
2022-11-25T13:58:36.554Z,100540.00
2022-11-25T14:01:27.972Z,100550.63
2022-11-25T14:03:46.143Z,100544.63
2022-11-25T14:06:00.824Z,100553.06
2022-11-25T14:08:26.612Z,100556.63
2022-11-25T14:11:08.831Z,100558.56
2022-11-25T14:13:40.837Z,100547.31
2022-11-25T14:16:07.787Z,100548.44
2022-11-25T14:18:43.006Z,100554.16
2022-11-25T14:20:43.747Z,100556.09
2022-11-25T14:23:07.051Z,100552.53
2022-11-25T14:25:30.410Z,100555.81
2022-11-25T14:27:35.948Z,100557.19
2022-11-25T14:29:45.329Z,100559.06
2022-11-25T14:31:59.489Z,100550.91
2022-11-25T14:34:09.809Z,100555.25
2022-11-25T14:36:17.501Z,100549.56
2022-11-25T14:38:25.485Z,100561.28
2022-11-25T14:40:37.026Z,100566.72
2022-11-25T14:42:44.112Z,100568.09
2022-11-25T14:44:56.698Z,100575.19
2022-11-25T14:46:58.925Z,100571.13
2022-11-25T14:49:03.289Z,100564.81
2022-11-25T14:51:10.584Z,100574.38
2022-11-25T14:53:14.270Z,100573.28
2022-11-25T14:55:32.339Z,100572.19
2022-11-25T14:57:37.283Z,100564.53
2022-11-25T14:59:44.976Z,100586.94
2022-11-25T15:01:55.146Z,100585.56
2022-11-25T15:04:12.712Z,100583.09
2022-11-25T15:06:15.388Z,100586.94
2022-11-25T15:08:22.160Z,100586.66
2022-11-25T15:10:33.852Z,100588.28
2022-11-25T15:12:38.366Z,100575.72
2022-11-25T15:14:49.745Z,100587.19
2022-11-25T15:16:52.847Z,100584.19
2022-11-25T15:19:00.967Z,100594.56
2022-11-25T15:21:03.460Z,100594.81
2022-11-25T15:23:05.982Z,100593.47
2022-11-25T15:25:14.735Z,100590.75
2022-11-25T15:27:27.668Z,100595.38
2022-11-25T15:29:31.147Z,100603.03
2022-11-25T15:31:34.997Z,100595.66
2022-11-25T15:33:37.616Z,100603.56
2022-11-25T15:35:39.687Z,100596.47
2022-11-25T15:37:42.006Z,100601.41
2022-11-25T15:39:44.576Z,100604.41
2022-11-25T15:42:03.463Z,100600.31
2022-11-25T15:44:06.434Z,100599.75
2022-11-25T15:46:08.975Z,100605.22
2022-11-25T15:48:29.693Z,100595.91
2022-11-25T15:50:34.377Z,100605.72
2022-11-25T15:52:40.021Z,100585.53
2022-11-25T15:54:45.202Z,100601.06
2022-11-25T15:56:50.772Z,100599.19
2022-11-25T15:58:55.127Z,100603.53
2022-11-25T16:01:21.736Z,100592.63
2022-11-25T16:03:23.958Z,100610.63
2022-11-25T16:05:37.619Z,100600.78
2022-11-25T16:07:54.924Z,100606.28
2022-11-25T16:09:56.787Z,100597.53
2022-11-25T16:12:06.724Z,100609.81
2022-11-25T16:14:27.144Z,100603.53
2022-11-25T16:16:30.244Z,100599.72
2022-11-25T16:18:40.769Z,100595.59
2022-11-25T16:20:51.944Z,100601.34
2022-11-25T16:22:53.963Z,100594.22
2022-11-25T16:25:02.134Z,100583.91
2022-11-25T16:27:27.979Z,100602.75
2022-11-25T16:29:32.245Z,100605.19
2022-11-25T16:31:34.364Z,100589.66
2022-11-25T16:33:36.591Z,100611.22
2022-11-25T16:35:38.960Z,100595.94
2022-11-25T16:37:48.830Z,100605.22
2022-11-25T16:39:51.391Z,100592.38
2022-11-25T16:42:02.969Z,100595.38
2022-11-25T16:44:08.757Z,100580.38
2022-11-25T16:46:15.826Z,100595.91
2022-11-25T16:48:20.386Z,100597.84
2022-11-25T16:50:23.001Z,100595.38
2022-11-25T16:52:24.795Z,100604.09
2022-11-25T16:54:27.141Z,100588.28
2022-11-25T16:56:29.651Z,100603.56
2022-11-25T16:58:31.441Z,100607.91
2022-11-25T17:00:33.607Z,100614.78
2022-11-25T17:02:35.918Z,100618.84
2022-11-25T17:04:37.799Z,100611.50
2022-11-25T17:06:43.946Z,100621.03
2022-11-25T17:08:46.725Z,100611.75
2022-11-25T17:10:49.770Z,100613.94
2022-11-25T17:12:51.771Z,100612.84
2022-11-25T17:14:53.939Z,100620.47
2022-11-25T17:16:56.355Z,100614.16
2022-11-25T17:19:00.832Z,100621.03
2022-11-25T17:21:04.902Z,100625.41
2022-11-25T17:23:12.559Z,100627.59
2022-11-25T17:25:14.485Z,100629.50
2022-11-25T17:27:26.356Z,100635.22
2022-11-25T17:29:37.511Z,100629.75
2022-11-25T17:31:39.537Z,100624.03
2022-11-25T17:33:47.512Z,100625.69
2022-11-25T17:35:50.552Z,100619.91
2022-11-25T17:37:53.413Z,100620.47
2022-11-25T17:39:55.676Z,100618.31
2022-11-25T17:42:02.371Z,100619.97
2022-11-25T17:44:04.375Z,100615.84
2022-11-25T17:46:11.172Z,100608.22
2022-11-25T17:48:19.438Z,100615.03
2022-11-25T17:50:25.952Z,100620.78
2022-11-25T17:52:30.900Z,100632.50
2022-11-25T17:54:34.099Z,100630.84
2022-11-25T17:56:37.482Z,100630.91
2022-11-25T17:58:40.499Z,100635.78
2022-11-25T18:00:44.064Z,100611.22
2022-11-25T18:02:46.601Z,100639.84
2022-11-25T18:04:49.860Z,100635.25
2022-11-25T18:06:55.450Z,100639.03
2022-11-25T18:08:57.584Z,100625.41
2022-11-25T18:11:02.752Z,100630.59
2022-11-25T18:13:05.824Z,100639.84
2022-11-25T18:15:14.174Z,100636.59
2022-11-25T18:17:19.293Z,100632.50
2022-11-25T18:19:24.011Z,100634.69
2022-11-25T18:21:26.500Z,100631.69
2022-11-25T18:23:29.271Z,100625.44
2022-11-25T18:25:36.392Z,100639.06
2022-11-25T18:27:38.182Z,100633.59
2022-11-25T18:29:39.991Z,100638.22
2022-11-25T18:31:47.733Z,100634.97
2022-11-25T18:33:51.104Z,100635.78
2022-11-25T18:35:55.769Z,100633.06
2022-11-25T18:38:00.011Z,100644.22
2022-11-25T18:40:03.709Z,100643.44
2022-11-25T18:42:08.597Z,100648.38
2022-11-25T18:44:26.268Z,100654.09
2022-11-25T18:46:33.137Z,100643.69
2022-11-25T18:48:35.633Z,100653.53
2022-11-25T18:50:37.727Z,100661.75
2022-11-25T18:52:39.676Z,100650.00
2022-11-25T18:54:42.255Z,100646.72
2022-11-25T18:56:51.625Z,100653.81
2022-11-25T18:58:53.753Z,100654.63
2022-11-25T19:01:03.358Z,100650.28
2022-11-25T19:03:13.466Z,100638.53
2022-11-25T19:05:38.108Z,100650.00
2022-11-25T19:07:40.641Z,100650.28
2022-11-25T19:09:42.550Z,100658.75
2022-11-25T19:11:49.121Z,100662.56
2022-11-25T19:13:53.714Z,100635.81
2022-11-25T19:16:05.271Z,100628.47
2022-11-25T19:18:16.578Z,100674.06
2022-11-25T19:20:20.986Z,100659.84
2022-11-25T19:22:35.307Z,100648.38
2022-11-25T19:24:38.990Z,100674.63
2022-11-25T19:26:43.563Z,100676.22
2022-11-25T19:28:51.530Z,100668.59
2022-11-25T19:30:59.486Z,100672.69
2022-11-25T19:33:02.469Z,100672.94
2022-11-25T19:35:11.258Z,100681.44
2022-11-25T19:37:26.249Z,100684.19
2022-11-25T19:39:35.708Z,100669.16
2022-11-25T19:41:38.105Z,100682.81
2022-11-25T19:43:39.905Z,100678.72
2022-11-25T19:45:41.926Z,100677.34
2022-11-25T19:47:48.790Z,100690.47
2022-11-25T19:49:56.166Z,100679.53
2022-11-25T19:51:57.991Z,100676.22
2022-11-25T19:54:00.534Z,100690.44
2022-11-25T19:56:05.557Z,100677.59
2022-11-25T19:58:20.079Z,100684.97
2022-11-25T20:00:38.099Z,100706.81
2022-11-25T20:02:46.187Z,100695.09
2022-11-25T20:04:57.062Z,100709.31
2022-11-25T20:07:00.179Z,100710.66
2022-11-25T20:09:07.890Z,100708.47
2022-11-25T20:11:16.889Z,100702.75
2022-11-25T20:13:23.171Z,100705.19
2022-11-25T20:15:26.029Z,100716.94
2022-11-25T20:17:30.986Z,100716.97
2022-11-25T20:19:33.224Z,100719.69
2022-11-25T20:21:39.880Z,100716.41
2022-11-25T20:23:45.082Z,100715.59
2022-11-25T20:25:50.201Z,100722.41
2022-11-25T20:27:55.468Z,100722.16
2022-11-25T20:30:00.151Z,100715.88
2022-11-25T20:32:22.352Z,100727.31
2022-11-25T20:34:24.847Z,100733.59
2022-11-25T20:36:32.434Z,100739.09
2022-11-25T20:38:37.678Z,100710.91
2022-11-25T20:40:45.344Z,100734.16
2022-11-25T20:42:50.504Z,100723.22
2022-11-25T20:45:03.435Z,100733.06
2022-11-25T20:47:15.160Z,100735.81
2022-11-25T20:49:23.423Z,100727.31
2022-11-25T20:51:27.934Z,100729.78
2022-11-25T20:53:33.164Z,100738.81
2022-11-25T20:55:36.739Z,100727.06
2022-11-25T20:57:45.147Z,100736.91
2022-11-25T20:59:47.533Z,100731.44
2022-11-25T21:01:50.580Z,100733.34
2022-11-25T21:03:56.557Z,100748.91
2022-11-25T21:06:05.444Z,100743.44
2022-11-25T21:08:17.705Z,100724.34
2022-11-25T21:10:29.092Z,100745.34
2022-11-25T21:12:31.252Z,100742.06
2022-11-25T21:14:35.095Z,100748.94
2022-11-25T21:16:37.451Z,100750.56
2022-11-25T21:18:41.323Z,100747.84
2022-11-25T21:20:43.361Z,100742.88
2022-11-25T21:22:50.004Z,100734.97
2022-11-25T21:24:52.334Z,100747.81
2022-11-25T21:27:03.459Z,100734.69
2022-11-25T21:29:15.603Z,100742.34
2022-11-25T21:31:23.777Z,100736.34
2022-11-25T21:33:26.387Z,100746.72
2022-11-25T21:35:33.299Z,100754.66
2022-11-25T21:37:36.699Z,100751.63
2022-11-25T21:39:38.547Z,100756.84
2022-11-25T21:41:40.779Z,100751.09
2022-11-25T21:43:45.650Z,100753.53
2022-11-25T21:45:48.488Z,100749.16
2022-11-25T21:47:57.775Z,100747.50
2022-11-25T21:50:12.247Z,100746.97
2022-11-25T21:52:14.916Z,100753.81
2022-11-25T21:54:16.796Z,100738.25
2022-11-25T21:56:30.980Z,100751.91
2022-11-25T21:58:32.908Z,100758.47
2022-11-25T22:00:34.774Z,100758.19
2022-11-25T22:02:37.078Z,100759.53
2022-11-25T22:04:40.656Z,100760.94
2022-11-25T22:06:45.263Z,100762.00
2022-11-25T22:08:47.482Z,100755.75
2022-11-25T22:10:52.357Z,100760.09
2022-11-25T22:12:54.285Z,100763.13
2022-11-25T22:14:58.658Z,100771.03
2022-11-25T22:17:01.686Z,100753.84
2022-11-25T22:19:04.531Z,100753.28
2022-11-25T22:21:06.718Z,100757.13
2022-11-25T22:23:16.299Z,100759.84
2022-11-25T22:25:18.642Z,100770.75
2022-11-25T22:27:26.399Z,100769.94
2022-11-25T22:29:34.599Z,100778.97
2022-11-25T22:31:36.490Z,100778.72
2022-11-25T22:33:38.907Z,100762.03
2022-11-25T22:35:41.599Z,100777.63
2022-11-25T22:37:44.326Z,100771.06
2022-11-25T22:39:46.498Z,100789.38
2022-11-25T22:41:55.180Z,100779.81
2022-11-25T22:43:57.492Z,100795.94
2022-11-25T22:45:59.745Z,100794.84
2022-11-25T22:48:06.257Z,100794.56
2022-11-25T22:50:21.038Z,100794.28
2022-11-25T22:52:29.694Z,100798.66
2022-11-25T22:54:33.046Z,100798.66
2022-11-25T22:56:34.839Z,100786.63
2022-11-25T22:58:37.123Z,100780.63
2022-11-25T23:00:46.200Z,100789.38
2022-11-25T23:02:49.485Z,100810.13
2022-11-25T23:04:54.175Z,100811.22
2022-11-25T23:06:56.123Z,100807.41
2022-11-25T23:09:00.414Z,100807.16
2022-11-25T23:11:02.694Z,100806.06
2022-11-25T23:13:04.701Z,100805.47
2022-11-25T23:15:06.870Z,100807.13
2022-11-25T23:17:23.938Z,100799.19
2022-11-25T23:19:25.882Z,100806.88
2022-11-25T23:21:29.223Z,100809.59
2022-11-25T23:23:31.098Z,100806.31
2022-11-25T23:25:32.872Z,100807.69
2022-11-25T23:27:35.046Z,100813.97
2022-11-25T23:29:36.899Z,100797.31
2022-11-25T23:31:40.028Z,100809.59
2022-11-25T23:33:47.026Z,100810.44
2022-11-25T23:35:49.030Z,100800.31
2022-11-25T23:37:54.817Z,100814.78
2022-11-25T23:39:57.023Z,100804.97
2022-11-25T23:41:59.002Z,100798.94
2022-11-25T23:44:14.833Z,100812.34
2022-11-25T23:46:20.943Z,100815.63
2022-11-25T23:48:27.746Z,100818.91
2022-11-25T23:50:32.432Z,100817.78
2022-11-25T23:52:34.563Z,100824.91
2022-11-25T23:54:42.581Z,100816.69
2022-11-25T23:56:44.476Z,100815.09
2022-11-25T23:58:46.612Z,100817.25
